Dehlco, Louisiana
Current Conditions -  °F | °C
As of 3:53 PM on Saturday 25 Oct 2014 (Local Time) from KMLU Reporting Station
Clear Clear  
Wind Chill: 82°   Ceiling: Unl
Heat Index: 82°   Visibility: 10mi
Dew Point: 59°   Wind: 7mph
Humidity: 45%   Direction: 270°W
Pressure: 30.07"   Gusts: NA
Location:  32.4475°N, 91.7992°W
Report Text: KMLU 252053Z 27006KT 10SM CLR 28/15 A3007 RMK AO2 SLP182 T02780150 56026
Loading
Personal Weather Stations






























Interactive Weather Map
Tropical Storm Tracking
New forecast layout! Learn more

10-Day Weather Forecast

Advertisements
Track Severe Weather on mobile